sensor_id;sensor_type;location;lat;lon;timestamp;temperature;humidity
15947;DHT22;8072;52.554;7.966;2022-10-16T00:01:51;12.60;99.90
15947;DHT22;8072;52.554;7.966;2022-10-16T00:04:17;12.60;99.90
15947;DHT22;8072;52.554;7.966;2022-10-16T00:06:43;12.60;99.90
15947;DHT22;8072;52.554;7.966;2022-10-16T00:09:09;12.50;99.90
15947;DHT22;8072;52.554;7.966;2022-10-16T00:11:38;12.50;99.90
15947;DHT22;8072;52.554;7.966;2022-10-16T00:14:09;12.60;99.90
15947;DHT22;8072;52.554;7.966;2022-10-16T00:16:36;12.50;99.90
15947;DHT22;8072;52.554;7.966;2022-10-16T00:19:03;12.60;99.90
15947;DHT22;8072;52.554;7.966;2022-10-16T00:21:30;12.50;99.90
15947;DHT22;8072;52.554;7.966;2022-10-16T00:24:03;12.50;99.90
15947;DHT22;8072;52.554;7.966;2022-10-16T00:26:31;12.50;99.90
15947;DHT22;8072;52.554;7.966;2022-10-16T00:28:57;12.50;99.90
15947;DHT22;8072;52.554;7.966;2022-10-16T00:31:24;12.50;99.90
15947;DHT22;8072;52.554;7.966;2022-10-16T00:33:50;12.50;99.90
15947;DHT22;8072;52.554;7.966;2022-10-16T00:36:20;12.40;99.90
15947;DHT22;8072;52.554;7.966;2022-10-16T00:38:45;12.40;99.90
15947;DHT22;8072;52.554;7.966;2022-10-16T00:41:14;12.40;99.90
15947;DHT22;8072;52.554;7.966;2022-10-16T00:43:44;12.30;99.90
15947;DHT22;8072;52.554;7.966;2022-10-16T00:46:31;12.30;99.90
15947;DHT22;8072;52.554;7.966;2022-10-16T00:49:07;12.30;99.90
15947;DHT22;8072;52.554;7.966;2022-10-16T00:54:03;12.20;99.90
15947;DHT22;8072;52.554;7.966;2022-10-16T00:56:29;12.20;99.90
15947;DHT22;8072;52.554;7.966;2022-10-16T00:58:55;12.20;99.90
15947;DHT22;8072;52.554;7.966;2022-10-16T01:01:21;12.20;99.90
15947;DHT22;8072;52.554;7.966;2022-10-16T01:03:47;12.20;99.90
15947;DHT22;8072;52.554;7.966;2022-10-16T01:06:34;12.10;99.90
15947;DHT22;8072;52.554;7.966;2022-10-16T01:12:13;12.10;99.90
15947;DHT22;8072;52.554;7.966;2022-10-16T01:14:53;12.10;99.90
15947;DHT22;8072;52.554;7.966;2022-10-16T01:20:31;12.10;99.90
15947;DHT22;8072;52.554;7.966;2022-10-16T01:31:20;12.20;99.90
15947;DHT22;8072;52.554;7.966;2022-10-16T01:33:56;12.20;99.90
15947;DHT22;8072;52.554;7.966;2022-10-16T01:36:35;12.10;99.90
15947;DHT22;8072;52.554;7.966;2022-10-16T01:39:03;12.20;99.90
15947;DHT22;8072;52.554;7.966;2022-10-16T01:41:57;12.20;99.90
15947;DHT22;8072;52.554;7.966;2022-10-16T01:44:29;12.20;99.90
15947;DHT22;8072;52.554;7.966;2022-10-16T01:46:56;12.20;99.90
15947;DHT22;8072;52.554;7.966;2022-10-16T01:49:25;12.20;99.90
15947;DHT22;8072;52.554;7.966;2022-10-16T01:51:55;12.20;99.90
15947;DHT22;8072;52.554;7.966;2022-10-16T01:54:23;12.20;99.90
15947;DHT22;8072;52.554;7.966;2022-10-16T01:56:51;12.20;99.90
15947;DHT22;8072;52.554;7.966;2022-10-16T01:59:20;12.20;99.90
15947;DHT22;8072;52.554;7.966;2022-10-16T02:01:52;12.20;99.90
15947;DHT22;8072;52.554;7.966;2022-10-16T02:06:48;12.10;99.90
15947;DHT22;8072;52.554;7.966;2022-10-16T02:09:14;12.10;99.90
15947;DHT22;8072;52.554;7.966;2022-10-16T02:11:43;12.10;99.90
15947;DHT22;8072;52.554;7.966;2022-10-16T02:14:09;12.10;99.90
15947;DHT22;8072;52.554;7.966;2022-10-16T02:16:40;12.10;99.90
15947;DHT22;8072;52.554;7.966;2022-10-16T02:19:07;12.10;99.90
15947;DHT22;8072;52.554;7.966;2022-10-16T02:21:42;12.00;99.90
15947;DHT22;8072;52.554;7.966;2022-10-16T02:29:30;12.00;99.90
15947;DHT22;8072;52.554;7.966;2022-10-16T02:32:02;12.00;99.90
15947;DHT22;8072;52.554;7.966;2022-10-16T02:34:32;12.00;99.90
15947;DHT22;8072;52.554;7.966;2022-10-16T02:37:01;12.00;99.90
15947;DHT22;8072;52.554;7.966;2022-10-16T02:39:28;12.00;99.90
15947;DHT22;8072;52.554;7.966;2022-10-16T02:41:54;12.00;99.90
15947;DHT22;8072;52.554;7.966;2022-10-16T02:44:20;12.00;99.90
15947;DHT22;8072;52.554;7.966;2022-10-16T02:46:46;12.00;99.90
15947;DHT22;8072;52.554;7.966;2022-10-16T02:49:12;12.00;99.90
15947;DHT22;8072;52.554;7.966;2022-10-16T02:51:37;12.00;99.90
15947;DHT22;8072;52.554;7.966;2022-10-16T02:54:03;12.00;99.90
15947;DHT22;8072;52.554;7.966;2022-10-16T02:56:29;12.00;99.90
15947;DHT22;8072;52.554;7.966;2022-10-16T02:58:56;12.00;99.90
15947;DHT22;8072;52.554;7.966;2022-10-16T03:01:24;12.10;99.90
15947;DHT22;8072;52.554;7.966;2022-10-16T03:03:50;12.00;99.90
15947;DHT22;8072;52.554;7.966;2022-10-16T03:06:16;12.00;99.90
15947;DHT22;8072;52.554;7.966;2022-10-16T03:08:42;12.10;99.90
15947;DHT22;8072;52.554;7.966;2022-10-16T03:11:08;12.10;99.90
15947;DHT22;8072;52.554;7.966;2022-10-16T03:13:34;12.20;99.90
15947;DHT22;8072;52.554;7.966;2022-10-16T03:16:00;12.20;99.90
15947;DHT22;8072;52.554;7.966;2022-10-16T03:18:26;12.20;99.90
15947;DHT22;8072;52.554;7.966;2022-10-16T03:20:51;12.30;99.90
15947;DHT22;8072;52.554;7.966;2022-10-16T03:23:17;12.30;99.90
15947;DHT22;8072;52.554;7.966;2022-10-16T03:25:43;12.40;99.90
15947;DHT22;8072;52.554;7.966;2022-10-16T03:28:09;12.40;99.90
15947;DHT22;8072;52.554;7.966;2022-10-16T03:30:35;12.50;99.90
15947;DHT22;8072;52.554;7.966;2022-10-16T03:33:01;12.50;99.90
15947;DHT22;8072;52.554;7.966;2022-10-16T03:35:27;12.60;99.90
15947;DHT22;8072;52.554;7.966;2022-10-16T03:37:53;12.60;99.90
15947;DHT22;8072;52.554;7.966;2022-10-16T03:40:19;12.70;99.90
15947;DHT22;8072;52.554;7.966;2022-10-16T03:42:45;12.70;99.90
15947;DHT22;8072;52.554;7.966;2022-10-16T03:45:11;12.80;99.90
15947;DHT22;8072;52.554;7.966;2022-10-16T03:47:37;12.80;99.90
15947;DHT22;8072;52.554;7.966;2022-10-16T03:50:04;12.80;99.90
15947;DHT22;8072;52.554;7.966;2022-10-16T03:52:30;12.90;99.90
15947;DHT22;8072;52.554;7.966;2022-10-16T03:54:57;12.90;99.90
15947;DHT22;8072;52.554;7.966;2022-10-16T03:57:24;12.90;99.90
15947;DHT22;8072;52.554;7.966;2022-10-16T03:59:49;12.90;99.90
15947;DHT22;8072;52.554;7.966;2022-10-16T04:02:16;12.90;99.90
15947;DHT22;8072;52.554;7.966;2022-10-16T04:04:42;12.90;99.90
15947;DHT22;8072;52.554;7.966;2022-10-16T04:07:08;12.90;99.90
15947;DHT22;8072;52.554;7.966;2022-10-16T04:09:33;12.90;99.90
15947;DHT22;8072;52.554;7.966;2022-10-16T04:11:59;12.90;99.90
15947;DHT22;8072;52.554;7.966;2022-10-16T04:14:25;12.90;99.90
15947;DHT22;8072;52.554;7.966;2022-10-16T04:16:51;12.90;99.90
15947;DHT22;8072;52.554;7.966;2022-10-16T04:19:16;12.90;99.90
15947;DHT22;8072;52.554;7.966;2022-10-16T04:21:44;12.90;99.90
15947;DHT22;8072;52.554;7.966;2022-10-16T04:24:10;12.90;99.90
15947;DHT22;8072;52.554;7.966;2022-10-16T04:26:37;12.90;99.90
15947;DHT22;8072;52.554;7.966;2022-10-16T04:29:03;12.90;99.90
15947;DHT22;8072;52.554;7.966;2022-10-16T04:31:29;12.90;99.90
15947;DHT22;8072;52.554;7.966;2022-10-16T04:33:55;12.90;99.90
15947;DHT22;8072;52.554;7.966;2022-10-16T04:36:21;12.90;99.90
15947;DHT22;8072;52.554;7.966;2022-10-16T04:38:47;12.90;99.90
15947;DHT22;8072;52.554;7.966;2022-10-16T04:41:21;12.90;99.90
15947;DHT22;8072;52.554;7.966;2022-10-16T04:43:46;12.90;99.90
15947;DHT22;8072;52.554;7.966;2022-10-16T04:46:13;12.90;99.90
15947;DHT22;8072;52.554;7.966;2022-10-16T04:48:38;12.90;99.90
15947;DHT22;8072;52.554;7.966;2022-10-16T04:51:04;12.90;99.90
15947;DHT22;8072;52.554;7.966;2022-10-16T04:53:30;12.90;99.90
15947;DHT22;8072;52.554;7.966;2022-10-16T04:55:56;12.90;99.90
15947;DHT22;8072;52.554;7.966;2022-10-16T04:58:22;12.90;99.90
15947;DHT22;8072;52.554;7.966;2022-10-16T05:00:48;12.90;99.90
15947;DHT22;8072;52.554;7.966;2022-10-16T05:03:14;12.90;99.90
15947;DHT22;8072;52.554;7.966;2022-10-16T05:05:43;12.90;99.90
15947;DHT22;8072;52.554;7.966;2022-10-16T05:08:10;12.90;99.90
15947;DHT22;8072;52.554;7.966;2022-10-16T05:10:36;12.90;99.90
15947;DHT22;8072;52.554;7.966;2022-10-16T05:13:02;12.90;99.90
15947;DHT22;8072;52.554;7.966;2022-10-16T05:15:28;12.90;99.90
15947;DHT22;8072;52.554;7.966;2022-10-16T05:17:56;12.80;99.90
15947;DHT22;8072;52.554;7.966;2022-10-16T05:20:22;12.80;99.90
15947;DHT22;8072;52.554;7.966;2022-10-16T05:22:48;12.80;99.90
15947;DHT22;8072;52.554;7.966;2022-10-16T05:25:14;12.80;99.90
15947;DHT22;8072;52.554;7.966;2022-10-16T05:27:40;12.80;99.90
15947;DHT22;8072;52.554;7.966;2022-10-16T05:30:09;12.80;99.90
15947;DHT22;8072;52.554;7.966;2022-10-16T05:32:34;12.80;99.90
15947;DHT22;8072;52.554;7.966;2022-10-16T05:35:00;12.90;99.90
15947;DHT22;8072;52.554;7.966;2022-10-16T05:37:29;12.90;99.90
15947;DHT22;8072;52.554;7.966;2022-10-16T05:39:55;12.90;99.90
15947;DHT22;8072;52.554;7.966;2022-10-16T05:42:21;12.90;99.90
15947;DHT22;8072;52.554;7.966;2022-10-16T05:44:47;12.90;99.90
15947;DHT22;8072;52.554;7.966;2022-10-16T05:47:13;12.90;99.90
15947;DHT22;8072;52.554;7.966;2022-10-16T05:49:39;12.90;99.90
15947;DHT22;8072;52.554;7.966;2022-10-16T05:52:05;12.90;99.90
15947;DHT22;8072;52.554;7.966;2022-10-16T05:54:31;12.90;99.90
15947;DHT22;8072;52.554;7.966;2022-10-16T05:56:57;12.90;99.90
15947;DHT22;8072;52.554;7.966;2022-10-16T05:59:23;12.80;99.90
15947;DHT22;8072;52.554;7.966;2022-10-16T06:01:48;12.80;99.90
15947;DHT22;8072;52.554;7.966;2022-10-16T06:04:14;12.90;99.90
15947;DHT22;8072;52.554;7.966;2022-10-16T06:06:40;12.90;99.90
15947;DHT22;8072;52.554;7.966;2022-10-16T06:09:06;12.80;99.90
15947;DHT22;8072;52.554;7.966;2022-10-16T06:11:32;12.80;99.90
15947;DHT22;8072;52.554;7.966;2022-10-16T06:14:01;12.80;99.90
15947;DHT22;8072;52.554;7.966;2022-10-16T06:16:36;12.80;99.90
15947;DHT22;8072;52.554;7.966;2022-10-16T06:19:02;12.80;99.90
15947;DHT22;8072;52.554;7.966;2022-10-16T06:21:31;12.80;99.90
15947;DHT22;8072;52.554;7.966;2022-10-16T06:23:58;12.80;99.90
15947;DHT22;8072;52.554;7.966;2022-10-16T06:26:25;12.80;99.90
15947;DHT22;8072;52.554;7.966;2022-10-16T06:28:53;12.90;99.90
15947;DHT22;8072;52.554;7.966;2022-10-16T06:31:20;12.80;99.90
15947;DHT22;8072;52.554;7.966;2022-10-16T06:33:49;12.80;99.90
15947;DHT22;8072;52.554;7.966;2022-10-16T06:36:16;12.90;99.90
15947;DHT22;8072;52.554;7.966;2022-10-16T06:38:43;12.90;99.90
15947;DHT22;8072;52.554;7.966;2022-10-16T06:41:17;12.90;99.90
15947;DHT22;8072;52.554;7.966;2022-10-16T06:43:44;13.00;99.90
15947;DHT22;8072;52.554;7.966;2022-10-16T06:46:12;13.00;99.90
15947;DHT22;8072;52.554;7.966;2022-10-16T06:48:38;13.00;99.90
15947;DHT22;8072;52.554;7.966;2022-10-16T06:51:14;13.00;99.90
15947;DHT22;8072;52.554;7.966;2022-10-16T06:53:42;13.00;99.90
15947;DHT22;8072;52.554;7.966;2022-10-16T06:58:45;13.00;99.90
15947;DHT22;8072;52.554;7.966;2022-10-16T07:01:12;13.00;99.90
15947;DHT22;8072;52.554;7.966;2022-10-16T07:03:40;13.00;99.90
15947;DHT22;8072;52.554;7.966;2022-10-16T07:06:07;13.00;99.90
15947;DHT22;8072;52.554;7.966;2022-10-16T07:08:34;13.00;99.90
15947;DHT22;8072;52.554;7.966;2022-10-16T07:11:02;13.00;99.90
15947;DHT22;8072;52.554;7.966;2022-10-16T07:13:28;13.00;99.90
15947;DHT22;8072;52.554;7.966;2022-10-16T07:15:54;13.10;99.90
15947;DHT22;8072;52.554;7.966;2022-10-16T07:18:20;13.10;99.90
15947;DHT22;8072;52.554;7.966;2022-10-16T07:20:46;13.10;99.90
15947;DHT22;8072;52.554;7.966;2022-10-16T07:23:12;13.10;99.90
15947;DHT22;8072;52.554;7.966;2022-10-16T07:25:37;13.20;99.90
15947;DHT22;8072;52.554;7.966;2022-10-16T07:28:03;13.20;99.90
15947;DHT22;8072;52.554;7.966;2022-10-16T07:30:29;13.30;99.90
15947;DHT22;8072;52.554;7.966;2022-10-16T07:32:54;13.40;99.90
15947;DHT22;8072;52.554;7.966;2022-10-16T07:35:20;13.50;99.90
15947;DHT22;8072;52.554;7.966;2022-10-16T07:37:46;13.60;99.90
15947;DHT22;8072;52.554;7.966;2022-10-16T07:40:12;13.70;99.90
15947;DHT22;8072;52.554;7.966;2022-10-16T07:42:38;13.80;99.90
15947;DHT22;8072;52.554;7.966;2022-10-16T07:45:04;13.90;99.90
15947;DHT22;8072;52.554;7.966;2022-10-16T07:47:30;14.00;99.90
15947;DHT22;8072;52.554;7.966;2022-10-16T07:49:56;14.10;99.90
15947;DHT22;8072;52.554;7.966;2022-10-16T07:52:22;14.20;99.90
15947;DHT22;8072;52.554;7.966;2022-10-16T07:54:47;14.30;99.90
15947;DHT22;8072;52.554;7.966;2022-10-16T07:57:13;14.40;99.90
15947;DHT22;8072;52.554;7.966;2022-10-16T07:59:45;14.40;99.90
15947;DHT22;8072;52.554;7.966;2022-10-16T08:02:11;14.60;99.90
15947;DHT22;8072;52.554;7.966;2022-10-16T08:04:37;14.60;99.90
15947;DHT22;8072;52.554;7.966;2022-10-16T08:07:03;14.60;99.90
15947;DHT22;8072;52.554;7.966;2022-10-16T08:09:29;14.70;99.90
15947;DHT22;8072;52.554;7.966;2022-10-16T08:11:55;14.70;99.90
15947;DHT22;8072;52.554;7.966;2022-10-16T08:14:20;14.80;99.90
15947;DHT22;8072;52.554;7.966;2022-10-16T08:16:46;14.80;99.90
15947;DHT22;8072;52.554;7.966;2022-10-16T08:19:12;14.80;99.90
15947;DHT22;8072;52.554;7.966;2022-10-16T08:21:37;14.90;99.90
15947;DHT22;8072;52.554;7.966;2022-10-16T08:24:03;15.00;99.90
15947;DHT22;8072;52.554;7.966;2022-10-16T08:26:29;15.00;99.90
15947;DHT22;8072;52.554;7.966;2022-10-16T08:28:55;15.10;99.90
15947;DHT22;8072;52.554;7.966;2022-10-16T08:31:21;15.20;99.90
15947;DHT22;8072;52.554;7.966;2022-10-16T08:33:47;15.20;99.90
15947;DHT22;8072;52.554;7.966;2022-10-16T08:36:14;15.10;99.90
15947;DHT22;8072;52.554;7.966;2022-10-16T08:38:40;15.00;99.90
15947;DHT22;8072;52.554;7.966;2022-10-16T08:47:17;14.80;99.90
15947;DHT22;8072;52.554;7.966;2022-10-16T08:49:58;14.80;99.90
15947;DHT22;8072;52.554;7.966;2022-10-16T08:52:29;14.90;99.90
15947;DHT22;8072;52.554;7.966;2022-10-16T08:54:57;15.00;99.90
15947;DHT22;8072;52.554;7.966;2022-10-16T08:57:24;15.10;99.90
15947;DHT22;8072;52.554;7.966;2022-10-16T08:59:52;15.20;99.90
15947;DHT22;8072;52.554;7.966;2022-10-16T09:02:24;15.30;99.90
15947;DHT22;8072;52.554;7.966;2022-10-16T09:18:35;15.60;99.90
15947;DHT22;8072;52.554;7.966;2022-10-16T09:21:19;15.60;99.90
15947;DHT22;8072;52.554;7.966;2022-10-16T09:23:47;15.60;99.90
15947;DHT22;8072;52.554;7.966;2022-10-16T09:26:14;15.70;99.90
15947;DHT22;8072;52.554;7.966;2022-10-16T09:28:41;15.70;99.90
15947;DHT22;8072;52.554;7.966;2022-10-16T09:31:16;15.80;99.90
15947;DHT22;8072;52.554;7.966;2022-10-16T09:33:48;15.90;99.90
15947;DHT22;8072;52.554;7.966;2022-10-16T09:36:16;15.90;99.90
15947;DHT22;8072;52.554;7.966;2022-10-16T09:38:42;15.90;99.90
15947;DHT22;8072;52.554;7.966;2022-10-16T09:41:20;15.90;99.90
15947;DHT22;8072;52.554;7.966;2022-10-16T09:43:55;16.00;99.90
15947;DHT22;8072;52.554;7.966;2022-10-16T09:46:29;16.10;99.90
15947;DHT22;8072;52.554;7.966;2022-10-16T09:49:25;16.30;99.90
15947;DHT22;8072;52.554;7.966;2022-10-16T09:52:05;16.40;99.90
15947;DHT22;8072;52.554;7.966;2022-10-16T09:54:31;16.40;99.90
15947;DHT22;8072;52.554;7.966;2022-10-16T09:57:10;16.40;99.90
15947;DHT22;8072;52.554;7.966;2022-10-16T09:59:47;16.40;99.90
15947;DHT22;8072;52.554;7.966;2022-10-16T10:02:15;16.40;99.90
15947;DHT22;8072;52.554;7.966;2022-10-16T10:04:50;16.40;99.90
15947;DHT22;8072;52.554;7.966;2022-10-16T10:07:38;16.50;99.90
15947;DHT22;8072;52.554;7.966;2022-10-16T10:10:20;16.60;99.90
15947;DHT22;8072;52.554;7.966;2022-10-16T10:12:47;16.80;99.90
15947;DHT22;8072;52.554;7.966;2022-10-16T10:15:14;16.90;99.90
15947;DHT22;8072;52.554;7.966;2022-10-16T10:17:57;16.80;99.90
15947;DHT22;8072;52.554;7.966;2022-10-16T10:20:34;16.70;99.90
15947;DHT22;8072;52.554;7.966;2022-10-16T10:23:15;16.70;99.90
15947;DHT22;8072;52.554;7.966;2022-10-16T10:31:37;16.80;99.90
15947;DHT22;8072;52.554;7.966;2022-10-16T10:39:51;16.90;99.90
15947;DHT22;8072;52.554;7.966;2022-10-16T10:45:11;16.80;99.90
15947;DHT22;8072;52.554;7.966;2022-10-16T10:50:45;16.90;99.90
15947;DHT22;8072;52.554;7.966;2022-10-16T11:01:30;17.20;99.90
15947;DHT22;8072;52.554;7.966;2022-10-16T11:12:07;17.50;99.90
15947;DHT22;8072;52.554;7.966;2022-10-16T11:15:10;17.70;99.90
15947;DHT22;8072;52.554;7.966;2022-10-16T11:23:55;18.40;99.90
15947;DHT22;8072;52.554;7.966;2022-10-16T11:26:39;18.60;99.90
15947;DHT22;8072;52.554;7.966;2022-10-16T11:29:13;18.80;99.90
15947;DHT22;8072;52.554;7.966;2022-10-16T11:31:43;18.90;99.90
15947;DHT22;8072;52.554;7.966;2022-10-16T11:39:28;19.00;99.90
15947;DHT22;8072;52.554;7.966;2022-10-16T11:42:27;19.00;99.90
15947;DHT22;8072;52.554;7.966;2022-10-16T11:47:54;19.10;99.90
15947;DHT22;8072;52.554;7.966;2022-10-16T11:55:56;19.20;99.90
15947;DHT22;8072;52.554;7.966;2022-10-16T12:03:29;19.40;99.90
15947;DHT22;8072;52.554;7.966;2022-10-16T12:08:44;19.40;99.90
15947;DHT22;8072;52.554;7.966;2022-10-16T12:13:52;19.40;99.90
15947;DHT22;8072;52.554;7.966;2022-10-16T12:16:28;19.50;99.90
15947;DHT22;8072;52.554;7.966;2022-10-16T12:19:12;19.50;99.90
15947;DHT22;8072;52.554;7.966;2022-10-16T12:21:39;19.50;99.90
15947;DHT22;8072;52.554;7.966;2022-10-16T12:24:05;19.70;99.90
15947;DHT22;8072;52.554;7.966;2022-10-16T12:26:38;19.60;99.90
15947;DHT22;8072;52.554;7.966;2022-10-16T12:31:47;19.60;99.90
15947;DHT22;8072;52.554;7.966;2022-10-16T12:34:25;19.80;99.90
15947;DHT22;8072;52.554;7.966;2022-10-16T12:36:52;19.80;99.90
15947;DHT22;8072;52.554;7.966;2022-10-16T12:39:23;19.90;99.90
15947;DHT22;8072;52.554;7.966;2022-10-16T12:42:02;19.90;99.90
15947;DHT22;8072;52.554;7.966;2022-10-16T12:44:32;19.90;99.90
15947;DHT22;8072;52.554;7.966;2022-10-16T12:47:00;19.90;99.90
15947;DHT22;8072;52.554;7.966;2022-10-16T12:49:37;19.90;99.90
15947;DHT22;8072;52.554;7.966;2022-10-16T12:52:04;20.00;99.90
15947;DHT22;8072;52.554;7.966;2022-10-16T12:54:37;20.00;99.90
15947;DHT22;8072;52.554;7.966;2022-10-16T13:05:51;20.00;99.90
15947;DHT22;8072;52.554;7.966;2022-10-16T13:11:26;19.90;99.90
15947;DHT22;8072;52.554;7.966;2022-10-16T13:27:50;19.70;99.90
15947;DHT22;8072;52.554;7.966;2022-10-16T13:32:50;19.80;99.90
15947;DHT22;8072;52.554;7.966;2022-10-16T13:35:23;19.80;99.90
15947;DHT22;8072;52.554;7.966;2022-10-16T13:37:50;19.90;99.90
15947;DHT22;8072;52.554;7.966;2022-10-16T13:40:23;19.80;99.90
15947;DHT22;8072;52.554;7.966;2022-10-16T13:42:50;19.90;99.90
15947;DHT22;8072;52.554;7.966;2022-10-16T13:45:21;19.90;99.90
15947;DHT22;8072;52.554;7.966;2022-10-16T13:47:47;19.90;99.90
15947;DHT22;8072;52.554;7.966;2022-10-16T13:50:16;19.90;99.90
15947;DHT22;8072;52.554;7.966;2022-10-16T13:52:42;19.90;99.90
15947;DHT22;8072;52.554;7.966;2022-10-16T13:55:16;19.80;99.90
15947;DHT22;8072;52.554;7.966;2022-10-16T13:57:43;19.80;99.90
15947;DHT22;8072;52.554;7.966;2022-10-16T14:02:43;19.60;99.90
15947;DHT22;8072;52.554;7.966;2022-10-16T14:05:10;19.60;99.90
15947;DHT22;8072;52.554;7.966;2022-10-16T14:07:36;19.40;99.90
15947;DHT22;8072;52.554;7.966;2022-10-16T14:10:06;19.40;99.90
15947;DHT22;8072;52.554;7.966;2022-10-16T14:12:33;19.30;99.90
15947;DHT22;8072;52.554;7.966;2022-10-16T14:15:00;19.30;99.90
15947;DHT22;8072;52.554;7.966;2022-10-16T14:17:28;19.20;99.90
15947;DHT22;8072;52.554;7.966;2022-10-16T14:20:00;19.20;99.90
15947;DHT22;8072;52.554;7.966;2022-10-16T14:24:58;19.10;99.90
15947;DHT22;8072;52.554;7.966;2022-10-16T14:27:33;18.90;99.90
15947;DHT22;8072;52.554;7.966;2022-10-16T14:30:26;18.90;99.90
15947;DHT22;8072;52.554;7.966;2022-10-16T14:33:01;18.90;99.90
15947;DHT22;8072;52.554;7.966;2022-10-16T14:35:36;18.80;99.90
15947;DHT22;8072;52.554;7.966;2022-10-16T14:38:04;18.90;99.90
15947;DHT22;8072;52.554;7.966;2022-10-16T14:40:35;18.80;99.90
15947;DHT22;8072;52.554;7.966;2022-10-16T14:43:03;18.90;99.90
15947;DHT22;8072;52.554;7.966;2022-10-16T14:45:32;18.90;99.90
15947;DHT22;8072;52.554;7.966;2022-10-16T14:48:01;18.90;99.90
15947;DHT22;8072;52.554;7.966;2022-10-16T14:50:28;18.80;99.90
15947;DHT22;8072;52.554;7.966;2022-10-16T14:52:54;18.80;99.90
15947;DHT22;8072;52.554;7.966;2022-10-16T14:55:20;18.80;99.90
15947;DHT22;8072;52.554;7.966;2022-10-16T14:57:46;18.80;99.90
15947;DHT22;8072;52.554;7.966;2022-10-16T15:00:18;18.80;99.90
15947;DHT22;8072;52.554;7.966;2022-10-16T15:02:44;18.80;99.90
15947;DHT22;8072;52.554;7.966;2022-10-16T15:05:20;18.70;99.90
15947;DHT22;8072;52.554;7.966;2022-10-16T15:07:47;18.70;99.90
15947;DHT22;8072;52.554;7.966;2022-10-16T15:10:15;18.60;99.90
15947;DHT22;8072;52.554;7.966;2022-10-16T15:12:41;18.50;99.90
15947;DHT22;8072;52.554;7.966;2022-10-16T15:17:52;18.50;99.90
15947;DHT22;8072;52.554;7.966;2022-10-16T15:20:19;18.40;99.90
15947;DHT22;8072;52.554;7.966;2022-10-16T15:22:45;18.40;99.90
15947;DHT22;8072;52.554;7.966;2022-10-16T15:25:34;18.20;99.90
15947;DHT22;8072;52.554;7.966;2022-10-16T15:28:01;18.30;99.90
15947;DHT22;8072;52.554;7.966;2022-10-16T15:30:27;18.20;99.90
15947;DHT22;8072;52.554;7.966;2022-10-16T15:32:53;18.20;99.90
15947;DHT22;8072;52.554;7.966;2022-10-16T15:35:19;18.10;99.90
15947;DHT22;8072;52.554;7.966;2022-10-16T15:37:46;18.00;99.90
15947;DHT22;8072;52.554;7.966;2022-10-16T15:40:12;18.00;99.90
15947;DHT22;8072;52.554;7.966;2022-10-16T15:42:38;18.00;99.90
15947;DHT22;8072;52.554;7.966;2022-10-16T15:45:05;17.90;99.90
15947;DHT22;8072;52.554;7.966;2022-10-16T15:47:31;17.80;99.90
15947;DHT22;8072;52.554;7.966;2022-10-16T15:49:57;17.70;99.90
15947;DHT22;8072;52.554;7.966;2022-10-16T15:52:23;17.60;99.90
15947;DHT22;8072;52.554;7.966;2022-10-16T15:54:49;17.50;99.90
15947;DHT22;8072;52.554;7.966;2022-10-16T15:57:15;17.40;99.90
15947;DHT22;8072;52.554;7.966;2022-10-16T15:59:41;17.30;99.90
15947;DHT22;8072;52.554;7.966;2022-10-16T16:02:08;17.20;99.90
15947;DHT22;8072;52.554;7.966;2022-10-16T16:04:34;17.20;99.90
15947;DHT22;8072;52.554;7.966;2022-10-16T16:07:00;17.10;99.90
15947;DHT22;8072;52.554;7.966;2022-10-16T16:09:29;17.10;99.90
15947;DHT22;8072;52.554;7.966;2022-10-16T16:11:55;17.00;99.90
15947;DHT22;8072;52.554;7.966;2022-10-16T16:14:20;17.00;99.90
15947;DHT22;8072;52.554;7.966;2022-10-16T16:16:46;17.00;99.90
15947;DHT22;8072;52.554;7.966;2022-10-16T16:19:12;17.00;99.90
15947;DHT22;8072;52.554;7.966;2022-10-16T16:21:38;17.00;99.90
15947;DHT22;8072;52.554;7.966;2022-10-16T16:24:04;17.00;99.90
15947;DHT22;8072;52.554;7.966;2022-10-16T16:26:34;16.90;99.90
15947;DHT22;8072;52.554;7.966;2022-10-16T16:29:03;16.90;99.90
15947;DHT22;8072;52.554;7.966;2022-10-16T16:31:31;16.80;99.90
15947;DHT22;8072;52.554;7.966;2022-10-16T16:33:57;16.80;99.90
15947;DHT22;8072;52.554;7.966;2022-10-16T16:36:24;16.80;99.90
15947;DHT22;8072;52.554;7.966;2022-10-16T16:38:50;16.70;99.90
15947;DHT22;8072;52.554;7.966;2022-10-16T16:41:19;16.70;99.90
15947;DHT22;8072;52.554;7.966;2022-10-16T16:43:46;16.60;99.90
15947;DHT22;8072;52.554;7.966;2022-10-16T16:46:16;16.50;99.90
15947;DHT22;8072;52.554;7.966;2022-10-16T16:48:42;16.50;99.90
15947;DHT22;8072;52.554;7.966;2022-10-16T16:51:15;16.50;99.90
15947;DHT22;8072;52.554;7.966;2022-10-16T16:53:46;16.40;99.90
15947;DHT22;8072;52.554;7.966;2022-10-16T16:56:13;16.30;99.90
15947;DHT22;8072;52.554;7.966;2022-10-16T16:58:39;16.20;99.90
15947;DHT22;8072;52.554;7.966;2022-10-16T17:01:05;16.20;99.90
15947;DHT22;8072;52.554;7.966;2022-10-16T17:03:33;16.10;99.90
15947;DHT22;8072;52.554;7.966;2022-10-16T17:06:01;16.00;99.90
15947;DHT22;8072;52.554;7.966;2022-10-16T17:08:28;15.90;99.90
15947;DHT22;8072;52.554;7.966;2022-10-16T17:10:56;15.90;99.90
15947;DHT22;8072;52.554;7.966;2022-10-16T17:13:27;15.80;99.90
15947;DHT22;8072;52.554;7.966;2022-10-16T17:15:53;15.60;99.90
15947;DHT22;8072;52.554;7.966;2022-10-16T17:18:21;15.50;99.90
15947;DHT22;8072;52.554;7.966;2022-10-16T17:20:47;15.40;99.90
15947;DHT22;8072;52.554;7.966;2022-10-16T17:23:14;15.40;99.90
15947;DHT22;8072;52.554;7.966;2022-10-16T17:25:41;15.30;99.90
15947;DHT22;8072;52.554;7.966;2022-10-16T17:28:08;15.20;99.90
15947;DHT22;8072;52.554;7.966;2022-10-16T17:30:37;15.10;99.90
15947;DHT22;8072;52.554;7.966;2022-10-16T17:33:05;15.00;99.90
15947;DHT22;8072;52.554;7.966;2022-10-16T17:35:45;14.90;99.90
15947;DHT22;8072;52.554;7.966;2022-10-16T17:38:12;14.80;99.90
15947;DHT22;8072;52.554;7.966;2022-10-16T17:40:38;14.80;99.90
15947;DHT22;8072;52.554;7.966;2022-10-16T17:43:05;14.70;99.90
15947;DHT22;8072;52.554;7.966;2022-10-16T17:45:31;14.70;99.90
15947;DHT22;8072;52.554;7.966;2022-10-16T17:47:58;14.70;99.90
15947;DHT22;8072;52.554;7.966;2022-10-16T17:50:24;14.60;99.90
15947;DHT22;8072;52.554;7.966;2022-10-16T17:52:50;14.60;99.90
15947;DHT22;8072;52.554;7.966;2022-10-16T17:55:15;14.60;99.90
15947;DHT22;8072;52.554;7.966;2022-10-16T17:57:41;14.60;99.90
15947;DHT22;8072;52.554;7.966;2022-10-16T18:00:07;14.50;99.90
15947;DHT22;8072;52.554;7.966;2022-10-16T18:02:33;14.40;99.90
15947;DHT22;8072;52.554;7.966;2022-10-16T18:04:59;14.20;99.90
15947;DHT22;8072;52.554;7.966;2022-10-16T18:07:25;14.10;99.90
15947;DHT22;8072;52.554;7.966;2022-10-16T18:09:51;14.00;99.90
15947;DHT22;8072;52.554;7.966;2022-10-16T18:12:17;13.90;99.90
15947;DHT22;8072;52.554;7.966;2022-10-16T18:14:43;13.90;99.90
15947;DHT22;8072;52.554;7.966;2022-10-16T18:17:09;13.80;99.90
15947;DHT22;8072;52.554;7.966;2022-10-16T18:19:35;13.90;99.90
15947;DHT22;8072;52.554;7.966;2022-10-16T18:22:01;13.90;99.90
15947;DHT22;8072;52.554;7.966;2022-10-16T18:24:27;13.80;99.90